Time;durP1;ratioP1;P1;durP2;ratioP2;P2;SDS_P1;SDS_P2;PMS_P1;PMS_P2;Temp;Humidity;BMP_temperature;BMP_pressure;BME280_temperature;BME280_humidity;BME280_pressure;Samples;Min_cycle;Max_cycle;Signal;HPM_P1;HPM_P2
2023/06/18 00:01:19;;;;;;;4.50;3.55;;;28.10;30.00;;;;;;5107209;27;45320;-69
2023/06/18 00:03:46;;;;;;;4.45;4.05;;;28.10;30.00;;;;;;5107055;27;45311;-69
2023/06/18 00:06:13;;;;;;;4.50;3.75;;;28.10;30.00;;;;;;5107490;27;45403;-69
2023/06/18 00:08:40;;;;;;;4.10;3.70;;;28.10;30.00;;;;;;5107014;27;45334;-69
2023/06/18 00:11:07;;;;;;;3.90;3.55;;;28.10;30.00;;;;;;5105888;27;45232;-69
2023/06/18 00:13:34;;;;;;;3.78;3.47;;;28.00;30.00;;;;;;5107461;27;45300;-69
2023/06/18 00:16:02;;;;;;;4.07;3.67;;;28.00;30.00;;;;;;5107306;27;45394;-69
2023/06/18 00:18:29;;;;;;;3.85;3.55;;;28.00;30.00;;;;;;5107076;27;46362;-70
2023/06/18 00:20:59;;;;;;;3.70;3.40;;;28.00;30.00;;;;;;5106982;27;45265;-70
2023/06/18 00:23:26;;;;;;;3.85;3.40;;;28.00;30.00;;;;;;5107137;27;45287;-69
2023/06/18 00:25:53;;;;;;;3.33;3.05;;;27.90;30.00;;;;;;5107057;27;45447;-70
2023/06/18 00:28:20;;;;;;;5.28;3.90;;;28.00;30.10;;;;;;5106983;27;45237;-69
2023/06/18 00:30:46;;;;;;;4.55;3.75;;;27.90;30.00;;;;;;5106750;27;45303;-69
2023/06/18 00:33:15;;;;;;;3.60;3.30;;;27.90;30.00;;;;;;5106949;27;45284;-69
2023/06/18 00:35:42;;;;;;;3.88;3.58;;;27.90;30.00;;;;;;5107054;27;45541;-69
2023/06/18 00:38:09;;;;;;;3.88;3.58;;;27.90;30.10;;;;;;5106548;27;45551;-69
2023/06/18 00:40:36;;;;;;;3.92;3.63;;;27.80;30.00;;;;;;5106430;27;45290;-69
2023/06/18 00:43:03;;;;;;;3.97;3.67;;;27.80;30.10;;;;;;5106881;27;45294;-69
2023/06/18 00:45:30;;;;;;;4.03;3.72;;;27.80;30.10;;;;;;5106795;27;45354;-69
2023/06/18 00:47:57;;;;;;;4.65;3.70;;;27.80;30.10;;;;;;5106519;27;46656;-69
2023/06/18 00:50:26;;;;;;;3.80;3.40;;;27.80;30.10;;;;;;5106557;27;45285;-69
2023/06/18 00:52:59;;;;;;;3.50;3.20;;;27.70;30.10;;;;;;5106585;27;45318;-69
2023/06/18 00:55:26;;;;;;;3.80;3.50;;;27.70;30.10;;;;;;5106743;27;45294;-69
2023/06/18 00:57:59;;;;;;;3.78;3.47;;;27.70;30.20;;;;;;5106310;27;45493;-69
2023/06/18 01:00:28;;;;;;;4.50;4.10;;;27.70;30.20;;;;;;5106366;27;45194;-69
2023/06/18 01:02:55;;;;;;;4.18;3.80;;;27.70;30.30;;;;;;5106307;27;45365;-69
2023/06/18 01:05:23;;;;;;;3.72;3.42;;;27.70;30.30;;;;;;5106606;27;45471;-69
2023/06/18 01:07:51;;;;;;;3.90;3.50;;;27.60;30.30;;;;;;5106207;27;45670;-69
2023/06/18 01:10:20;;;;;;;3.80;3.50;;;27.60;30.30;;;;;;5106230;27;45303;-70
2023/06/18 01:12:48;;;;;;;3.88;3.53;;;27.60;30.30;;;;;;5106456;27;45417;-69
2023/06/18 01:15:15;;;;;;;3.85;3.55;;;27.60;30.30;;;;;;5106647;27;45508;-69
2023/06/18 01:17:46;;;;;;;3.20;3.00;;;27.60;30.30;;;;;;5106111;27;46421;-69
2023/06/18 01:20:13;;;;;;;3.58;3.30;;;27.50;30.30;;;;;;5106407;27;45483;-69
2023/06/18 01:22:42;;;;;;;3.63;3.33;;;27.50;30.40;;;;;;5105652;27;45162;-69
2023/06/18 01:25:10;;;;;;;3.60;3.30;;;27.50;30.40;;;;;;5106432;27;45418;-69
2023/06/18 01:27:40;;;;;;;4.10;3.70;;;27.50;30.50;;;;;;5105977;27;46731;-69
2023/06/18 01:30:08;;;;;;;3.65;3.35;;;27.50;30.50;;;;;;5106063;27;45315;-69
2023/06/18 01:32:36;;;;;;;3.92;3.63;;;27.50;30.50;;;;;;5106097;27;45295;-69
2023/06/18 01:35:03;;;;;;;3.78;3.47;;;27.40;30.50;;;;;;5106173;27;45403;-69
2023/06/18 01:37:37;;;;;;;3.58;3.30;;;27.40;30.50;;;;;;5106048;27;46411;-71
2023/06/18 01:40:21;;;;;;;3.30;3.08;;;27.40;30.50;;;;;;5105738;27;45327;-70
2023/06/18 01:42:52;;;;;;;3.97;3.60;;;27.40;30.60;;;;;;5105844;27;45379;-70
2023/06/18 01:45:22;;;;;;;4.03;3.65;;;27.30;30.60;;;;;;5106089;27;45114;-70
2023/06/18 01:47:48;;;;;;;3.60;3.30;;;27.30;30.60;;;;;;5105715;27;46502;-70
2023/06/18 01:50:15;;;;;;;3.95;3.50;;;27.30;30.60;;;;;;5105780;27;45257;-69
2023/06/18 01:52:42;;;;;;;3.90;3.60;;;27.30;30.60;;;;;;5105820;27;45241;-71
2023/06/18 01:55:10;;;;;;;3.63;3.33;;;27.30;30.60;;;;;;5105945;27;45239;-70
2023/06/18 01:57:38;;;;;;;3.40;3.10;;;27.20;30.60;;;;;;5105504;27;46379;-70
2023/06/18 02:00:07;;;;;;;4.25;3.85;;;27.20;30.60;;;;;;5105734;27;45337;-70
2023/06/18 02:02:34;;;;;;;4.03;3.63;;;27.20;30.60;;;;;;5105351;27;45342;-70
2023/06/18 02:05:00;;;;;;;3.80;3.50;;;27.20;30.70;;;;;;5105930;27;45508;-70
2023/06/18 02:07:27;;;;;;;3.70;3.40;;;27.20;30.70;;;;;;5105614;27;45369;-70
2023/06/18 02:09:54;;;;;;;3.60;3.30;;;27.10;30.70;;;;;;5105261;27;45420;-70
2023/06/18 02:12:21;;;;;;;3.80;3.50;;;27.20;30.80;;;;;;5105861;27;45323;-70
2023/06/18 02:14:49;;;;;;;3.80;3.50;;;27.10;30.70;;;;;;5105704;27;45250;-70
2023/06/18 02:17:16;;;;;;;4.18;3.75;;;27.10;30.80;;;;;;5105616;27;46550;-70
2023/06/18 02:19:44;;;;;;;3.75;3.45;;;27.10;30.80;;;;;;5105168;27;45370;-71
2023/06/18 02:22:11;;;;;;;3.38;3.13;;;27.10;30.80;;;;;;5105567;27;45279;-70
2023/06/18 02:24:37;;;;;;;3.85;3.47;;;27.10;30.90;;;;;;5105655;27;45365;-69
2023/06/18 02:27:05;;;;;;;3.65;3.35;;;27.00;30.90;;;;;;5105223;27;45220;-70
2023/06/18 02:29:31;;;;;;;3.60;3.30;;;27.00;30.80;;;;;;5105210;27;45411;-69
2023/06/18 02:32:00;;;;;;;3.50;3.20;;;27.00;30.90;;;;;;5105570;27;45312;-70
2023/06/18 02:34:27;;;;;;;3.65;3.33;;;27.00;30.90;;;;;;5106142;27;45379;-69
2023/06/18 02:36:55;;;;;;;5.90;3.63;;;26.90;30.90;;;;;;5108571;27;46606;-69
2023/06/18 02:39:22;;;;;;;4.07;3.53;;;27.00;30.90;;;;;;5108620;27;45389;-69
2023/06/18 02:41:49;;;;;;;3.72;3.42;;;27.00;31.00;;;;;;5108714;27;45389;-70
2023/06/18 02:44:17;;;;;;;3.50;3.30;;;26.90;30.90;;;;;;5108813;27;45361;-70
2023/06/18 02:46:43;;;;;;;3.45;3.15;;;26.90;31.00;;;;;;5108438;27;47460;-69
2023/06/18 02:49:12;;;;;;;3.60;3.30;;;26.90;31.00;;;;;;5108413;27;45446;-69
2023/06/18 02:51:38;;;;;;;3.67;3.38;;;26.80;30.90;;;;;;5108613;27;45465;-69
2023/06/18 02:54:05;;;;;;;3.90;3.60;;;26.80;31.00;;;;;;5108876;27;45239;-69
2023/06/18 02:56:32;;;;;;;3.90;3.53;;;26.80;31.00;;;;;;5108286;27;45492;-69
2023/06/18 02:58:59;;;;;;;4.65;3.70;;;26.80;31.00;;;;;;5108184;27;45253;-69
2023/06/18 03:01:26;;;;;;;3.60;3.30;;;26.80;31.70;;;;;;5108791;27;45385;-70
2023/06/18 03:03:54;;;;;;;3.58;3.20;;;26.70;31.00;;;;;;5108193;27;45316;-69
2023/06/18 03:06:23;;;;;;;4.68;3.60;;;26.70;31.70;;;;;;5108200;27;45251;-69
2023/06/18 03:08:50;;;;;;;3.80;3.50;;;26.70;31.10;;;;;;5108386;27;45291;-69
2023/06/18 03:11:16;;;;;;;3.28;3.03;;;26.70;31.10;;;;;;5108289;27;45382;-69
2023/06/18 03:13:43;;;;;;;3.55;3.25;;;26.70;31.00;;;;;;5108341;27;45391;-69
2023/06/18 03:16:10;;;;;;;3.47;3.17;;;26.70;31.10;;;;;;5107995;27;46296;-69
2023/06/18 03:18:37;;;;;;;3.47;3.17;;;26.60;31.00;;;;;;5107974;27;45270;-70
2023/06/18 03:21:04;;;;;;;4.00;3.70;;;26.60;31.00;;;;;;5108394;27;45317;-70
2023/06/18 03:23:32;;;;;;;3.72;3.38;;;26.60;31.10;;;;;;5108285;27;45383;-69
2023/06/18 03:25:59;;;;;;;5.03;3.47;;;26.60;31.10;;;;;;5107768;27;48352;-69
2023/06/18 03:28:26;;;;;;;3.50;3.20;;;26.60;31.10;;;;;;5107810;27;45431;-69
2023/06/18 03:30:53;;;;;;;3.38;3.08;;;26.60;31.10;;;;;;5107949;27;45302;-70
2023/06/18 03:33:21;;;;;;;3.92;3.50;;;26.60;31.10;;;;;;5108143;27;45287;-69
2023/06/18 03:35:49;;;;;;;3.75;3.45;;;26.50;31.10;;;;;;5107643;27;46508;-69
2023/06/18 03:38:16;;;;;;;4.15;3.38;;;26.50;31.10;;;;;;5107767;27;45378;-69
2023/06/18 03:40:44;;;;;;;3.75;3.42;;;26.50;31.10;;;;;;5107734;27;45367;-69
2023/06/18 03:43:11;;;;;;;3.72;3.42;;;26.50;31.10;;;;;;5108069;27;45411;-69
2023/06/18 03:45:38;;;;;;;3.78;3.47;;;26.50;31.10;;;;;;5107148;27;45477;-70
2023/06/18 03:48:05;;;;;;;4.30;3.53;;;26.50;31.10;;;;;;5107546;27;45469;-69
2023/06/18 03:50:32;;;;;;;4.00;3.60;;;26.50;31.10;;;;;;5107619;27;45241;-69
2023/06/18 03:53:00;;;;;;;3.50;3.20;;;26.40;31.10;;;;;;5107927;27;45394;-69
2023/06/18 03:55:26;;;;;;;3.67;3.30;;;26.40;31.10;;;;;;5107374;27;45614;-69
2023/06/18 03:57:55;;;;;;;3.65;3.35;;;26.40;31.10;;;;;;5107216;27;45381;-70
2023/06/18 04:00:21;;;;;;;3.60;3.30;;;26.40;31.10;;;;;;5107368;27;45232;-68
2023/06/18 04:02:48;;;;;;;3.50;3.20;;;26.40;31.20;;;;;;5107302;27;45404;-69
2023/06/18 04:05:15;;;;;;;3.15;2.95;;;26.40;31.20;;;;;;5107195;27;45280;-69
2023/06/18 04:07:42;;;;;;;3.92;3.42;;;26.30;31.20;;;;;;5107243;27;45253;-69
2023/06/18 04:10:09;;;;;;;3.70;3.40;;;26.30;31.20;;;;;;5107252;27;45494;-69
2023/06/18 04:12:36;;;;;;;3.35;3.05;;;26.30;31.20;;;;;;5107490;27;45370;-69
2023/06/18 04:15:06;;;;;;;3.70;3.40;;;26.30;31.30;;;;;;5107016;27;45375;-69
2023/06/18 04:17:39;;;;;;;4.10;3.65;;;26.20;31.30;;;;;;5107120;27;45290;-69
2023/06/18 04:20:07;;;;;;;3.53;3.22;;;26.20;31.30;;;;;;5107208;27;45306;-69
2023/06/18 04:22:34;;;;;;;3.90;3.50;;;26.20;31.30;;;;;;5107238;27;45377;-69
2023/06/18 04:25:01;;;;;;;3.65;3.35;;;26.20;31.30;;;;;;5106837;27;45316;-69
2023/06/18 04:27:28;;;;;;;3.38;3.05;;;26.20;31.40;;;;;;5106960;27;45318;-69
2023/06/18 04:29:55;;;;;;;4.00;3.70;;;26.20;31.40;;;;;;5106883;27;45252;-69
2023/06/18 04:32:23;;;;;;;4.47;3.38;;;26.20;31.40;;;;;;5107216;27;45289;-69
2023/06/18 04:34:50;;;;;;;2.92;2.72;;;26.20;31.40;;;;;;5106844;27;46500;-69
2023/06/18 04:37:16;;;;;;;3.60;3.30;;;26.10;31.40;;;;;;5106788;27;45302;-69
2023/06/18 04:39:43;;;;;;;3.60;3.30;;;26.10;31.40;;;;;;5106905;27;45310;-69
2023/06/18 04:42:11;;;;;;;4.25;3.85;;;26.10;31.40;;;;;;5107167;27;45239;-69
2023/06/18 04:44:38;;;;;;;3.78;3.40;;;26.10;31.40;;;;;;5106550;27;45307;-69
2023/06/18 04:47:05;;;;;;;3.40;3.10;;;26.10;31.50;;;;;;5106722;27;45308;-69
2023/06/18 04:49:33;;;;;;;3.45;3.15;;;26.10;31.40;;;;;;5106707;27;45269;-68
2023/06/18 04:52:01;;;;;;;3.97;3.60;;;26.10;31.50;;;;;;5107105;27;45430;-68
2023/06/18 04:54:27;;;;;;;3.67;3.35;;;26.10;31.50;;;;;;5106750;27;45415;-69
2023/06/18 04:56:57;;;;;;;3.75;3.28;;;26.10;31.50;;;;;;5106013;27;45332;-70
2023/06/18 04:59:24;;;;;;;3.58;3.28;;;26.00;31.40;;;;;;5106529;27;45284;-69
2023/06/18 05:01:51;;;;;;;3.92;3.53;;;26.00;31.50;;;;;;5106766;27;45404;-69
2023/06/18 05:04:18;;;;;;;3.53;3.22;;;26.00;31.50;;;;;;5106333;27;45294;-69
2023/06/18 05:06:46;;;;;;;3.67;3.38;;;26.00;31.50;;;;;;5106632;27;45409;-69
2023/06/18 05:09:13;;;;;;;3.60;3.30;;;26.00;31.50;;;;;;5106473;27;45310;-69
2023/06/18 05:11:40;;;;;;;3.47;3.17;;;26.00;31.50;;;;;;5106757;27;45248;-69
2023/06/18 05:14:07;;;;;;;3.97;3.67;;;26.00;31.50;;;;;;5106527;27;45260;-68
2023/06/18 05:16:34;;;;;;;3.75;3.40;;;26.00;31.50;;;;;;5106341;27;45376;-69
2023/06/18 05:19:00;;;;;;;3.72;3.17;;;26.00;31.50;;;;;;5106566;27;45452;-69
2023/06/18 05:21:27;;;;;;;3.70;3.30;;;26.00;31.60;;;;;;5106609;27;45417;-69
2023/06/18 05:23:56;;;;;;;3.70;3.40;;;26.00;31.60;;;;;;5106059;27;46726;-69
2023/06/18 05:26:23;;;;;;;3.55;3.25;;;26.00;31.60;;;;;;5106392;27;45412;-69
2023/06/18 05:28:49;;;;;;;3.67;3.35;;;26.00;31.60;;;;;;5106411;27;45320;-69
2023/06/18 05:31:16;;;;;;;3.70;3.40;;;26.00;31.60;;;;;;5106318;27;45415;-68
2023/06/18 05:33:43;;;;;;;3.53;3.13;;;26.00;31.60;;;;;;5105837;27;45471;-69
2023/06/18 05:36:10;;;;;;;3.97;3.28;;;26.00;31.60;;;;;;5106068;27;45303;-68
2023/06/18 05:38:37;;;;;;;3.08;2.80;;;26.00;31.60;;;;;;5106178;27;45296;-69
2023/06/18 05:41:05;;;;;;;3.40;3.10;;;26.00;32.20;;;;;;5106398;27;45414;-68
2023/06/18 05:43:32;;;;;;;3.45;3.15;;;26.00;31.60;;;;;;5106051;27;46470;-68
2023/06/18 05:45:59;;;;;;;3.45;3.15;;;26.00;31.60;;;;;;5105775;27;45314;-69
2023/06/18 05:48:26;;;;;;;3.13;2.92;;;26.00;31.60;;;;;;5106077;27;45338;-69
2023/06/18 05:50:53;;;;;;;4.07;3.67;;;26.00;31.60;;;;;;5106127;27;45318;-69
2023/06/18 05:53:19;;;;;;;3.28;3.05;;;26.00;31.50;;;;;;5105845;27;46502;-68
2023/06/18 05:55:46;;;;;;;3.45;3.13;;;26.00;31.60;;;;;;5105825;27;45434;-70
2023/06/18 05:58:15;;;;;;;3.40;3.10;;;26.00;31.50;;;;;;5105676;27;45310;-68
2023/06/18 06:00:42;;;;;;;3.50;3.20;;;26.00;31.60;;;;;;5106156;27;45483;-69
2023/06/18 06:03:10;;;;;;;3.40;3.10;;;26.00;31.60;;;;;;5105339;27;45769;-69
2023/06/18 06:05:37;;;;;;;3.45;3.20;;;26.00;31.60;;;;;;5105533;27;45370;-69
2023/06/18 06:08:06;;;;;;;3.08;2.85;;;26.00;31.60;;;;;;5105886;27;45233;-69
2023/06/18 06:10:34;;;;;;;3.08;2.88;;;26.00;31.60;;;;;;5109432;27;45465;-68
2023/06/18 06:13:02;;;;;;;3.70;3.40;;;26.00;31.50;;;;;;5109176;27;47296;-69
2023/06/18 06:15:30;;;;;;;3.50;3.10;;;26.00;31.50;;;;;;5109278;27;45344;-68
2023/06/18 06:17:57;;;;;;;3.78;3.13;;;26.00;31.50;;;;;;5109209;27;45323;-69
2023/06/18 06:20:23;;;;;;;3.88;3.58;;;26.00;31.50;;;;;;5109074;27;45479;-68
2023/06/18 06:22:51;;;;;;;3.38;3.08;;;26.00;31.60;;;;;;5108981;27;46504;-68
2023/06/18 06:25:17;;;;;;;3.45;3.22;;;26.00;31.60;;;;;;5108807;27;45309;-68
2023/06/18 06:27:44;;;;;;;3.90;3.50;;;26.10;31.60;;;;;;5109070;27;45254;-69
2023/06/18 06:30:12;;;;;;;3.25;2.97;;;26.10;31.60;;;;;;5109177;27;45192;-69
2023/06/18 06:32:40;;;;;;;3.92;3.35;;;26.10;31.50;;;;;;5109233;27;46148;-68
2023/06/18 06:35:07;;;;;;;3.33;3.03;;;26.10;31.50;;;;;;5108709;27;45303;-68
2023/06/18 06:37:34;;;;;;;3.40;3.10;;;26.10;31.50;;;;;;5108986;27;45165;-68
2023/06/18 06:40:02;;;;;;;3.45;3.10;;;26.10;31.50;;;;;;5108817;27;45399;-69
2023/06/18 06:42:29;;;;;;;3.28;3.03;;;26.10;31.50;;;;;;5108682;27;46564;-68
2023/06/18 06:44:56;;;;;;;3.55;3.25;;;26.10;31.60;;;;;;5108811;27;45340;-69
2023/06/18 06:47:22;;;;;;;3.90;3.45;;;26.10;31.60;;;;;;5108744;27;45422;-68
2023/06/18 06:49:51;;;;;;;3.58;3.28;;;26.20;31.70;;;;;;5108911;27;45311;-68
2023/06/18 06:52:17;;;;;;;3.85;3.15;;;26.20;31.70;;;;;;5108330;27;45216;-68
2023/06/18 06:54:44;;;;;;;3.47;3.17;;;26.20;31.70;;;;;;5108533;27;45327;-68
2023/06/18 06:57:11;;;;;;;3.58;3.28;;;26.20;31.70;;;;;;5108619;27;45382;-69
2023/06/18 06:59:38;;;;;;;3.53;2.92;;;26.20;31.70;;;;;;5108733;27;45346;-68
2023/06/18 07:02:05;;;;;;;4.35;3.53;;;26.20;31.80;;;;;;5108230;27;46204;-69
2023/06/18 07:04:32;;;;;;;3.50;3.20;;;26.20;31.90;;;;;;5108112;27;45272;-68
2023/06/18 07:07:01;;;;;;;3.60;3.30;;;26.20;31.80;;;;;;5108491;27;45303;-68
2023/06/18 07:09:28;;;;;;;3.70;3.40;;;26.30;31.80;;;;;;5108565;27;45415;-68
2023/06/18 07:11:54;;;;;;;3.42;3.20;;;26.30;31.90;;;;;;5108239;27;45492;-68
2023/06/18 07:14:21;;;;;;;3.45;3.15;;;26.30;31.90;;;;;;5108242;27;45264;-69
2023/06/18 07:16:48;;;;;;;3.45;3.15;;;26.30;32.00;;;;;;5108549;27;45173;-68
2023/06/18 07:19:15;;;;;;;3.45;3.08;;;26.30;32.00;;;;;;5108343;27;45354;-68
2023/06/18 07:21:42;;;;;;;3.80;3.50;;;26.30;31.90;;;;;;5107435;27;47348;-68
2023/06/18 07:24:10;;;;;;;3.97;3.58;;;26.30;32.00;;;;;;5108058;27;45301;-68
2023/06/18 07:26:37;;;;;;;3.47;3.17;;;26.30;31.80;;;;;;5108136;27;45203;-69
2023/06/18 07:29:04;;;;;;;3.08;2.88;;;26.40;31.80;;;;;;5108199;27;45414;-69
2023/06/18 07:31:31;;;;;;;3.42;3.13;;;26.40;31.80;;;;;;5107924;27;46494;-68
2023/06/18 07:33:58;;;;;;;3.17;2.95;;;26.40;31.80;;;;;;5107999;27;45336;-68
2023/06/18 07:36:25;;;;;;;3.30;3.00;;;26.40;31.80;;;;;;5108153;27;45389;-68
2023/06/18 07:38:51;;;;;;;3.70;3.40;;;26.40;31.70;;;;;;5107981;27;45320;-69
2023/06/18 07:41:20;;;;;;;3.03;2.80;;;26.40;31.70;;;;;;5107780;27;46387;-69
2023/06/18 07:43:46;;;;;;;3.42;3.13;;;26.50;31.80;;;;;;5107889;27;45426;-68
2023/06/18 07:46:13;;;;;;;3.55;3.25;;;26.50;31.80;;;;;;5107759;27;45371;-68
2023/06/18 07:48:40;;;;;;;3.45;3.15;;;26.50;31.70;;;;;;5107766;27;45462;-68
2023/06/18 07:51:07;;;;;;;3.33;3.08;;;26.50;31.70;;;;;;5107397;27;45506;-68
2023/06/18 07:53:34;;;;;;;3.50;3.20;;;26.60;31.70;;;;;;5107490;27;45385;-68
2023/06/18 07:56:01;;;;;;;2.92;2.72;;;26.60;31.70;;;;;;5107808;27;45317;-68
2023/06/18 07:58:30;;;;;;;3.20;2.95;;;26.60;31.60;;;;;;5107650;27;45312;-68
2023/06/18 08:00:57;;;;;;;3.70;3.00;;;26.60;31.70;;;;;;5107476;27;46422;-68
2023/06/18 08:03:24;;;;;;;3.67;3.38;;;26.70;31.70;;;;;;5107328;27;45276;-68
2023/06/18 08:05:50;;;;;;;3.40;3.10;;;26.70;31.80;;;;;;5107378;27;45401;-68
2023/06/18 08:08:18;;;;;;;3.40;3.10;;;26.70;31.70;;;;;;5107455;27;45495;-68
2023/06/18 08:10:44;;;;;;;3.30;3.03;;;26.80;31.80;;;;;;5107125;27;45402;-68
2023/06/18 08:13:11;;;;;;;3.85;3.55;;;26.80;31.70;;;;;;5107178;27;45246;-68
2023/06/18 08:15:40;;;;;;;5.05;4.03;;;26.80;32.10;;;;;;5107306;27;45318;-68
2023/06/18 08:18:07;;;;;;;4.47;4.07;;;26.80;33.60;;;;;;5107325;27;45304;-69
2023/06/18 08:20:34;;;;;;;6.15;4.82;;;26.80;33.40;;;;;;5107058;27;46284;-68
2023/06/18 08:23:00;;;;;;;6.00;5.22;;;26.80;34.60;;;;;;5107133;27;45191;-68
2023/06/18 08:25:27;;;;;;;5.72;4.85;;;26.80;34.50;;;;;;5107208;27;45536;-68
2023/06/18 08:27:56;;;;;;;5.50;4.88;;;26.80;34.90;;;;;;5107443;27;45414;-69
2023/06/18 08:30:23;;;;;;;7.30;4.90;;;26.80;34.50;;;;;;5106617;27;45510;-68
2023/06/18 08:32:51;;;;;;;5.65;4.85;;;26.80;34.80;;;;;;5105656;27;45196;-68
2023/06/18 08:35:19;;;;;;;7.13;4.90;;;26.90;35.80;;;;;;5107128;27;45234;-68
2023/06/18 08:37:46;;;;;;;6.70;5.05;;;26.90;35.10;;;;;;5107027;27;45512;-68
2023/06/18 08:40:14;;;;;;;5.32;4.85;;;27.00;34.70;;;;;;5106633;27;46276;-68
2023/06/18 08:42:40;;;;;;;5.25;4.75;;;27.00;34.60;;;;;;5106732;27;45198;-68
2023/06/18 08:45:08;;;;;;;5.57;4.70;;;27.10;34.30;;;;;;5106840;27;45315;-68
2023/06/18 08:47:35;;;;;;;6.03;5.07;;;27.10;34.20;;;;;;5106862;27;45399;-68
2023/06/18 08:50:03;;;;;;;6.03;4.90;;;27.20;34.20;;;;;;5106518;27;46584;-68
2023/06/18 08:52:30;;;;;;;5.57;4.60;;;27.20;34.10;;;;;;5106711;27;45205;-68
2023/06/18 08:54:58;;;;;;;6.40;5.10;;;27.20;34.00;;;;;;5106708;27;45287;-68
2023/06/18 08:57:28;;;;;;;6.28;4.40;;;27.30;34.00;;;;;;5107099;27;45508;-69
2023/06/18 08:59:55;;;;;;;4.65;4.25;;;27.30;34.00;;;;;;5106268;27;45345;-68
2023/06/18 09:02:22;;;;;;;4.80;4.40;;;27.30;33.90;;;;;;5106349;27;45246;-68
2023/06/18 09:04:49;;;;;;;5.50;5.00;;;27.40;33.80;;;;;;5106819;27;45258;-68
2023/06/18 09:07:18;;;;;;;6.55;4.53;;;27.40;33.70;;;;;;5106679;27;45492;-68
2023/06/18 09:09:45;;;;;;;5.43;4.93;;;27.40;33.70;;;;;;5106202;27;46385;-68
2023/06/18 09:12:11;;;;;;;4.85;4.45;;;27.50;33.70;;;;;;5106377;27;45327;-68
2023/06/18 09:14:38;;;;;;;6.93;4.85;;;27.50;33.60;;;;;;5106417;27;45256;-68
2023/06/18 09:17:05;;;;;;;4.93;4.50;;;27.50;33.50;;;;;;5106672;27;45359;-69
2023/06/18 09:19:33;;;;;;;5.20;4.70;;;27.60;33.60;;;;;;5101997;27;46373;-68
2023/06/18 09:22:11;;;;;;;4.75;4.25;;;27.60;33.40;;;;;;5105876;27;45486;-68
2023/06/18 09:24:39;;;;;;;4.57;4.13;;;27.60;33.30;;;;;;5105941;27;45195;-68
2023/06/18 09:27:07;;;;;;;5.60;4.70;;;27.70;33.40;;;;;;5106030;27;45283;-68
2023/06/18 09:29:35;;;;;;;4.35;3.85;;;27.70;33.40;;;;;;5105472;27;45614;-68
2023/06/18 09:32:06;;;;;;;4.93;4.43;;;27.70;33.40;;;;;;5104520;27;45336;-69
2023/06/18 09:34:33;;;;;;;4.90;4.28;;;27.80;33.40;;;;;;5105514;27;45311;-68
2023/06/18 09:37:00;;;;;;;4.43;4.10;;;27.80;33.20;;;;;;5106435;27;45395;-68
2023/06/18 09:39:27;;;;;;;4.88;3.78;;;27.80;33.10;;;;;;5104112;27;45303;-68
2023/06/18 09:41:55;;;;;;;4.68;4.28;;;27.80;33.10;;;;;;5104104;27;45257;-68
2023/06/18 09:44:23;;;;;;;4.60;3.90;;;27.90;33.10;;;;;;5106342;27;45354;-68
2023/06/18 09:46:51;;;;;;;4.82;3.75;;;27.90;33.10;;;;;;5109637;27;45371;-68
2023/06/18 09:49:19;;;;;;;4.15;3.80;;;27.90;33.00;;;;;;5109200;27;46668;-68
2023/06/18 09:51:47;;;;;;;5.85;3.90;;;28.00;33.00;;;;;;5109359;27;45307;-69
2023/06/18 09:54:13;;;;;;;4.25;3.85;;;28.00;32.90;;;;;;5107108;27;45291;-68
2023/06/18 09:56:40;;;;;;;12.52;4.10;;;28.10;32.90;;;;;;5109963;27;45353;-69
2023/06/18 09:59:19;;;;;;;4.60;3.72;;;28.10;32.90;;;;;;5109206;27;45268;-69
2023/06/18 10:01:47;;;;;;;3.97;3.65;;;28.10;32.80;;;;;;5108520;27;45584;-68
2023/06/18 10:04:14;;;;;;;5.22;4.30;;;28.20;32.80;;;;;;5108072;27;45506;-68
2023/06/18 10:06:41;;;;;;;4.35;3.97;;;28.20;32.80;;;;;;5109579;27;45237;-68
2023/06/18 10:09:08;;;;;;;4.50;4.10;;;28.20;32.70;;;;;;5105957;27;46663;-68
2023/06/18 10:11:35;;;;;;;4.10;3.70;;;28.30;32.70;;;;;;5107774;27;45315;-68
2023/06/18 10:14:05;;;;;;;4.40;4.00;;;28.30;32.60;;;;;;5106221;27;45489;-68
2023/06/18 10:16:34;;;;;;;5.25;3.90;;;28.40;32.70;;;;;;5109372;27;45250;-69
2023/06/18 10:19:03;;;;;;;4.72;3.95;;;28.40;32.60;;;;;;5108871;27;46334;-68
2023/06/18 10:21:30;;;;;;;4.20;3.80;;;28.40;32.50;;;;;;5108866;27;45297;-68
2023/06/18 10:24:00;;;;;;;5.40;3.53;;;28.50;32.50;;;;;;5107983;27;45189;-69
2023/06/18 10:26:27;;;;;;;4.10;3.80;;;28.50;32.40;;;;;;5107277;27;45383;-68
2023/06/18 10:28:54;;;;;;;4.22;3.80;;;28.50;32.30;;;;;;5108932;27;46341;-68
2023/06/18 10:31:21;;;;;;;3.90;3.60;;;28.60;32.30;;;;;;5108891;27;45192;-69
2023/06/18 10:33:49;;;;;;;3.78;3.47;;;28.60;32.20;;;;;;5108831;27;45247;-68
2023/06/18 10:36:16;;;;;;;4.22;3.83;;;28.70;32.30;;;;;;5106962;27;45532;-69
2023/06/18 10:38:43;;;;;;;4.25;3.85;;;28.70;32.20;;;;;;5108808;27;46455;-68
2023/06/18 10:41:10;;;;;;;3.78;3.47;;;28.80;32.10;;;;;;5108493;27;45343;-70
2023/06/18 10:43:39;;;;;;;3.90;3.60;;;28.90;32.10;;;;;;5108826;27;45180;-70
2023/06/18 10:46:11;;;;;;;3.70;3.40;;;28.90;32.10;;;;;;5107273;27;45458;-70
2023/06/18 10:48:38;;;;;;;4.05;3.65;;;28.90;31.90;;;;;;5108449;27;46903;-70
2023/06/18 10:51:16;;;;;;;3.70;3.40;;;29.00;32.00;;;;;;5108382;27;45331;-69
2023/06/18 10:53:44;;;;;;;4.38;3.97;;;29.00;31.80;;;;;;5105394;27;45350;-70
2023/06/18 10:56:11;;;;;;;3.78;3.45;;;29.10;31.90;;;;;;5106897;27;45294;-70
2023/06/18 10:58:38;;;;;;;3.80;3.50;;;29.10;31.80;;;;;;5108640;27;46388;-69
2023/06/18 11:01:05;;;;;;;3.83;3.53;;;29.10;31.80;;;;;;5106707;27;45299;-70
2023/06/18 11:03:35;;;;;;;4.75;4.05;;;29.10;31.80;;;;;;5106793;27;45684;-71
2023/06/18 11:06:03;;;;;;;6.00;3.47;;;29.20;31.80;;;;;;5107899;27;45401;-70
2023/06/18 11:08:32;;;;;;;3.78;3.47;;;29.20;31.80;;;;;;5107761;27;45193;-70
2023/06/18 11:11:02;;;;;;;3.92;3.53;;;29.30;31.70;;;;;;5108010;27;45462;-70
2023/06/18 11:13:31;;;;;;;3.55;3.25;;;29.30;31.70;;;;;;5106541;27;45181;-70
2023/06/18 11:16:02;;;;;;;3.90;3.60;;;29.40;31.70;;;;;;5107585;27;45595;-70
2023/06/18 11:18:30;;;;;;;3.58;3.28;;;29.40;31.60;;;;;;5107932;27;45499;-70
2023/06/18 11:20:57;;;;;;;3.78;3.47;;;29.40;31.60;;;;;;5108173;27;45390;-70
2023/06/18 11:23:24;;;;;;;3.60;3.30;;;29.50;31.60;;;;;;5108404;27;45339;-70
2023/06/18 11:25:52;;;;;;;3.65;3.35;;;29.50;31.50;;;;;;5108552;27;45372;-70
2023/06/18 11:28:19;;;;;;;3.60;3.30;;;29.60;31.50;;;;;;5105913;27;46773;-70
2023/06/18 11:30:49;;;;;;;4.05;3.70;;;29.60;32.00;;;;;;5107233;27;45504;-68
2023/06/18 11:33:22;;;;;;;3.65;3.28;;;29.70;31.30;;;;;;5104605;27;45404;-69
2023/06/18 11:35:49;;;;;;;3.85;3.55;;;29.80;31.30;;;;;;5107397;27;45455;-70
2023/06/18 11:38:16;;;;;;;4.10;3.72;;;29.80;31.20;;;;;;5103181;27;45315;-70
2023/06/18 11:40:54;;;;;;;5.72;3.53;;;29.80;31.10;;;;;;5107823;27;45280;-70
2023/06/18 11:43:21;;;;;;;3.70;3.40;;;29.90;31.10;;;;;;5104705;27;45374;-70
2023/06/18 11:45:48;;;;;;;3.97;3.67;;;30.00;31.10;;;;;;5087965;27;45434;-70
2023/06/18 11:48:17;;;;;;;9.85;3.80;;;30.00;30.90;;;;;;5099086;27;45475;-71
2023/06/18 11:50:44;;;;;;;3.83;3.53;;;30.10;30.90;;;;;;5107722;27;45293;-70
2023/06/18 11:53:11;;;;;;;4.03;3.55;;;30.20;30.90;;;;;;5108090;27;45267;-69
2023/06/18 11:55:37;;;;;;;4.18;3.78;;;30.20;30.60;;;;;;5107952;27;45229;-69
2023/06/18 11:58:06;;;;;;;6.30;3.90;;;30.20;30.70;;;;;;5107376;27;45486;-71
2023/06/18 12:00:33;;;;;;;4.50;4.05;;;30.30;30.60;;;;;;5108104;27;45252;-69
2023/06/18 12:03:00;;;;;;;4.60;3.65;;;30.40;30.40;;;;;;5107809;27;45216;-72
2023/06/18 12:05:33;;;;;;;4.15;3.85;;;30.50;30.30;;;;;;5108123;27;45324;-69
2023/06/18 12:08:08;;;;;;;4.82;4.18;;;30.50;30.10;;;;;;5106747;27;46416;-72
2023/06/18 12:10:35;;;;;;;4.00;3.67;;;30.60;30.00;;;;;;5106207;27;45325;-72
2023/06/18 12:13:07;;;;;;;4.78;3.67;;;30.60;30.00;;;;;;5106246;27;45511;-72
2023/06/18 12:15:36;;;;;;;4.53;4.13;;;30.70;30.00;;;;;;5103728;27;45254;-72
2023/06/18 12:18:04;;;;;;;5.45;4.43;;;30.80;30.00;;;;;;5106077;27;45464;-72
2023/06/18 12:20:31;;;;;;;3.97;3.67;;;30.80;30.00;;;;;;5105029;27;45316;-71
2023/06/18 12:23:00;;;;;;;4.60;4.10;;;30.80;30.00;;;;;;5107334;27;45366;-72
2023/06/18 12:25:28;;;;;;;4.85;4.35;;;30.90;30.00;;;;;;5107385;27;45248;-72
2023/06/18 12:27:55;;;;;;;4.70;3.80;;;30.90;29.90;;;;;;5107490;27;45479;-73
2023/06/18 12:30:28;;;;;;;6.18;4.30;;;31.00;29.90;;;;;;5105962;27;45368;-71
2023/06/18 12:33:05;;;;;;;4.95;4.32;;;31.00;29.80;;;;;;5107327;27;45535;-71
2023/06/18 12:35:32;;;;;;;4.40;4.00;;;31.10;29.80;;;;;;5107528;27;45376;-71
2023/06/18 12:38:03;;;;;;;4.45;4.05;;;31.10;29.90;;;;;;5106553;27;45360;-70
2023/06/18 12:40:31;;;;;;;5.68;4.32;;;31.10;29.90;;;;;;5105316;27;45363;-71
2023/06/18 12:42:58;;;;;;;5.15;3.72;;;31.20;29.90;;;;;;5106271;27;45371;-72
2023/06/18 12:45:25;;;;;;;5.03;4.22;;;31.20;29.90;;;;;;5107504;27;45560;-71
2023/06/18 12:47:54;;;;;;;5.57;4.57;;;31.30;30.40;;;;;;5106986;27;45478;-71
2023/06/18 12:50:21;;;;;;;5.00;4.30;;;31.30;29.90;;;;;;5106831;27;45376;-71